createdAt,value
2023-04-03T00:00:35.327Z,2.54
2023-04-03T00:05:33.059Z,2.58
2023-04-03T00:10:42.605Z,2.52
2023-04-03T00:15:44.472Z,2.45
2023-04-03T00:20:46.909Z,2.50
2023-04-03T00:25:44.228Z,2.45
2023-04-03T00:30:43.704Z,2.47
2023-04-03T00:35:40.671Z,2.41
2023-04-03T00:40:40.638Z,2.57
2023-04-03T00:45:41.891Z,2.34
2023-04-03T00:50:47.697Z,2.46
2023-04-03T00:55:48.101Z,2.43
2023-04-03T01:00:49.985Z,2.28
2023-04-03T01:11:06.095Z,2.40
2023-04-03T01:22:05.781Z,2.35
2023-04-03T01:27:04.290Z,2.32
2023-04-03T01:32:03.206Z,2.27
2023-04-03T01:37:01.153Z,2.18
2023-04-03T01:42:00.354Z,2.25
2023-04-03T01:46:57.371Z,2.06
2023-04-03T01:51:57.800Z,1.96
2023-04-03T01:56:54.490Z,2.10
2023-04-03T02:01:59.658Z,2.01
2023-04-03T02:12:34.542Z,1.94
2023-04-03T02:17:31.629Z,1.93
2023-04-03T02:22:29.271Z,1.99
2023-04-03T02:27:36.747Z,1.91
2023-04-03T02:32:36.264Z,1.97
2023-04-03T02:37:32.824Z,1.95
2023-04-03T02:42:29.561Z,1.92
2023-04-03T02:47:34.837Z,1.90
2023-04-03T02:52:51.938Z,1.78
2023-04-03T02:57:50.765Z,1.70
2023-04-03T03:02:47.462Z,1.88
2023-04-03T03:07:44.058Z,1.86
2023-04-03T03:12:41.488Z,1.78
2023-04-03T03:17:38.331Z,1.83
2023-04-03T03:22:35.707Z,1.66
2023-04-03T03:27:34.323Z,1.79
2023-04-03T03:32:31.659Z,1.68
2023-04-03T03:48:58.806Z,1.72
2023-04-03T03:54:29.369Z,1.71
2023-04-03T04:05:08.648Z,1.57
2023-04-03T04:10:11.054Z,1.60
2023-04-03T04:15:22.462Z,1.46
2023-04-03T04:20:25.111Z,1.46
2023-04-03T04:25:21.610Z,1.58
2023-04-03T04:30:18.292Z,1.60
2023-04-03T04:41:24.000Z,1.51
2023-04-03T04:46:40.974Z,1.51
2023-04-03T04:51:52.133Z,1.34
2023-04-03T04:56:51.555Z,1.33
2023-04-03T05:01:56.769Z,1.40
2023-04-03T05:06:58.194Z,1.35
2023-04-03T05:11:57.643Z,1.42
2023-04-03T05:16:54.795Z,1.39
2023-04-03T05:21:55.266Z,1.47
2023-04-03T05:26:54.122Z,1.45
2023-04-03T05:31:56.662Z,1.60
2023-04-03T05:36:55.754Z,1.47
2023-04-03T05:41:52.366Z,1.73
2023-04-03T05:46:49.010Z,1.82
2023-04-03T05:51:45.846Z,1.91
2023-04-03T05:56:42.338Z,2.08
2023-04-03T06:01:38.896Z,2.18
2023-04-03T06:06:53.508Z,2.26
2023-04-03T06:11:50.144Z,2.32
2023-04-03T06:16:46.938Z,2.41
2023-04-03T06:21:43.460Z,2.47
2023-04-03T06:26:39.939Z,2.58
2023-04-03T06:31:37.550Z,2.67
2023-04-03T06:36:34.318Z,2.78
2023-04-03T06:41:31.152Z,2.89
2023-04-03T06:46:28.614Z,3.18
2023-04-03T06:51:29.596Z,3.60
2023-04-03T06:56:27.260Z,3.76
2023-04-03T07:01:24.729Z,4.02
2023-04-03T07:06:24.777Z,4.08
2023-04-03T07:11:26.827Z,4.27
2023-04-03T07:16:32.085Z,4.42
2023-04-03T07:21:34.265Z,4.63
2023-04-03T07:26:35.472Z,4.48
2023-04-03T07:31:33.858Z,4.52
2023-04-03T07:36:30.958Z,4.65
2023-04-03T07:41:31.674Z,4.71
2023-04-03T07:46:35.465Z,4.68
2023-04-03T07:52:01.183Z,4.69
2023-04-03T07:57:04.252Z,4.89
2023-04-03T08:02:09.527Z,4.85
2023-04-03T08:07:16.936Z,4.79
2023-04-03T08:12:21.179Z,5.01
2023-04-03T08:17:22.603Z,5.10
2023-04-03T08:22:25.855Z,5.03
2023-04-03T08:27:24.714Z,5.07
2023-04-03T08:32:26.712Z,5.20
2023-04-03T08:37:23.524Z,5.24
2023-04-03T08:42:40.604Z,5.41
2023-04-03T08:48:00.375Z,5.45
2023-04-03T08:53:00.433Z,5.41
2023-04-03T08:58:06.145Z,5.46
2023-04-03T09:03:05.421Z,5.63
2023-04-03T09:08:06.835Z,5.61
2023-04-03T09:13:12.882Z,5.71
2023-04-03T09:18:18.391Z,5.78
2023-04-03T09:23:24.223Z,5.66
2023-04-03T09:28:23.220Z,5.62
2023-04-03T09:33:23.541Z,5.70
2023-04-03T09:38:25.354Z,5.90
2023-04-03T09:43:37.570Z,5.94
2023-04-03T09:48:39.522Z,5.96
2023-04-03T09:53:41.986Z,6.04
2023-04-03T09:58:50.754Z,6.05
2023-04-03T10:04:08.289Z,6.05
2023-04-03T10:09:33.958Z,6.12
2023-04-03T10:14:35.239Z,6.05
2023-04-03T10:19:54.531Z,6.11
2023-04-03T10:25:09.368Z,6.18
2023-04-03T10:30:47.185Z,6.32
2023-04-03T10:35:58.650Z,6.54
2023-04-03T10:41:08.433Z,6.63
2023-04-03T10:46:35.811Z,6.61
2023-04-03T10:51:41.423Z,6.71
2023-04-03T10:56:55.367Z,6.77
2023-04-03T11:02:01.555Z,6.84
2023-04-03T11:07:04.164Z,6.90
2023-04-03T11:12:07.709Z,7.06
2023-04-03T11:17:17.653Z,7.24
2023-04-03T11:22:17.433Z,7.43
2023-04-03T11:27:20.116Z,7.57
2023-04-03T11:32:35.279Z,7.57
2023-04-03T11:37:36.618Z,7.63
2023-04-03T11:42:39.494Z,7.56
2023-04-03T11:47:53.781Z,7.48
2023-04-03T11:52:50.474Z,7.39
2023-04-03T11:58:04.750Z,7.31
2023-04-03T12:03:01.476Z,7.27
2023-04-03T12:08:23.403Z,7.23
2023-04-03T12:13:19.898Z,7.28
2023-04-03T12:18:41.703Z,7.33
2023-04-03T12:24:16.926Z,7.43
2023-04-03T12:29:19.420Z,7.56
2023-04-03T12:34:28.070Z,7.65
2023-04-03T12:39:46.160Z,7.78
2023-04-03T12:45:17.555Z,7.84
2023-04-03T12:50:22.230Z,7.89
2023-04-03T12:55:21.216Z,7.89
2023-04-03T13:00:34.172Z,7.85
2023-04-03T13:05:31.414Z,7.76
2023-04-03T13:10:28.005Z,7.72
2023-04-03T13:15:30.336Z,7.80
2023-04-03T13:20:33.334Z,7.76
2023-04-03T13:25:32.934Z,7.74
2023-04-03T13:30:31.962Z,7.70
2023-04-03T13:35:40.075Z,7.68
2023-04-03T13:40:48.998Z,7.57
2023-04-03T13:46:06.130Z,7.55
2023-04-03T13:51:05.944Z,7.53
2023-04-03T13:56:05.056Z,7.61
2023-04-03T14:01:23.162Z,7.58
2023-04-03T14:06:20.030Z,7.57
2023-04-03T14:11:25.367Z,7.49
2023-04-03T14:16:24.559Z,7.52
2023-04-03T14:21:22.249Z,7.48
2023-04-03T14:26:24.084Z,7.51
2023-04-03T14:31:21.781Z,7.58
2023-04-03T14:36:24.279Z,7.56
2023-04-03T14:41:24.352Z,7.60
2023-04-03T14:46:42.994Z,7.63
2023-04-03T14:51:39.891Z,7.64
2023-04-03T14:56:36.433Z,7.61
2023-04-03T15:01:32.932Z,7.54
2023-04-03T15:06:29.468Z,7.52
2023-04-03T15:11:32.389Z,7.51
2023-04-03T15:16:45.986Z,7.53
2023-04-03T15:21:42.712Z,7.56
2023-04-03T15:26:39.147Z,7.54
2023-04-03T15:31:35.784Z,7.57
2023-04-03T15:36:34.514Z,7.57
2023-04-03T15:41:31.521Z,7.52
2023-04-03T16:21:01.932Z,7.06
2023-04-03T16:25:58.496Z,7.03
2023-04-03T16:30:55.060Z,6.96
2023-04-03T16:35:52.879Z,6.84
2023-04-03T16:40:50.008Z,6.87
2023-04-03T16:45:46.526Z,6.74
2023-04-03T16:50:43.076Z,6.71
2023-04-03T16:55:41.178Z,6.68
2023-04-03T17:07:59.945Z,6.55
2023-04-03T17:19:37.599Z,6.40
2023-04-03T17:38:39.766Z,6.11
2023-04-03T17:55:39.406Z,5.74
2023-04-03T18:00:38.718Z,5.75
2023-04-03T20:24:53.940Z,4.14
2023-04-03T20:29:50.986Z,4.08
2023-04-03T20:34:57.462Z,4.06
2023-04-03T20:40:00.312Z,4.02
2023-04-03T20:44:57.493Z,3.88
2023-04-03T20:49:53.941Z,3.97
2023-04-03T20:54:52.731Z,3.76
2023-04-03T20:59:52.700Z,3.76
2023-04-03T21:04:55.514Z,3.81
2023-04-03T21:10:31.892Z,3.75
2023-04-03T21:15:48.904Z,3.71
2023-04-03T21:20:47.783Z,3.65
2023-04-03T21:25:44.586Z,3.62
2023-04-03T21:30:41.989Z,3.59
2023-04-03T21:35:38.961Z,3.57
2023-04-03T21:40:37.297Z,3.53
2023-04-03T21:45:41.361Z,3.48
2023-04-03T21:50:39.783Z,3.47
2023-04-03T21:55:37.874Z,3.40
2023-04-03T22:00:34.768Z,3.39
2023-04-03T22:05:32.369Z,3.38
2023-04-03T22:10:29.665Z,3.33
2023-04-03T22:15:26.682Z,3.28
2023-04-03T22:20:29.256Z,3.28
2023-04-03T22:25:25.905Z,3.21
2023-04-03T22:30:25.064Z,3.22
2023-04-03T22:35:26.892Z,3.11
2023-04-03T22:40:26.590Z,3.08
2023-04-03T22:45:23.479Z,3.03
2023-04-03T22:50:20.392Z,2.97
2023-04-03T22:55:19.356Z,2.89
2023-04-03T23:00:16.929Z,2.84
2023-04-03T23:05:13.606Z,2.76
2023-04-03T23:10:11.696Z,2.67
2023-04-03T23:15:12.175Z,2.62
2023-04-03T23:20:11.823Z,2.54
2023-04-03T23:25:11.851Z,2.59
2023-04-03T23:30:09.332Z,2.55
2023-04-03T23:35:06.493Z,2.55
2023-04-03T23:40:03.548Z,2.53
2023-04-03T23:45:03.712Z,2.47
2023-04-03T23:50:00.608Z,2.37
2023-04-03T23:54:59.656Z,2.36
2023-04-03T23:59:57.057Z,2.34
